createdAt,value
2023-01-09T00:00:15.811Z,6.85
2023-01-09T00:04:19.386Z,6.88
2023-01-09T00:08:22.501Z,6.91
2023-01-09T00:12:27.084Z,6.93
2023-01-09T00:16:30.333Z,6.97
2023-01-09T00:20:33.332Z,6.98
2023-01-09T00:24:37.065Z,6.99
2023-01-09T00:28:42.146Z,7.03
2023-01-09T00:32:45.573Z,7.05
2023-01-09T00:36:48.885Z,7.08
2023-01-09T00:40:52.421Z,7.10
2023-01-09T00:45:00.426Z,7.13
2023-01-09T00:49:05.644Z,7.11
2023-01-09T00:53:14.554Z,7.14
2023-01-09T00:57:17.989Z,7.15
2023-01-09T01:01:23.282Z,7.16
2023-01-09T01:05:43.932Z,7.18
2023-01-09T01:09:50.045Z,7.19
2023-01-09T01:13:53.725Z,7.20
2023-01-09T01:17:59.892Z,7.22
2023-01-09T01:22:03.198Z,7.23
2023-01-09T01:26:07.627Z,7.22
2023-01-09T01:30:14.720Z,7.23
2023-01-09T01:34:19.351Z,7.22
2023-01-09T01:38:22.468Z,7.20
2023-01-09T01:42:25.636Z,7.17
2023-01-09T01:46:29.506Z,7.16
2023-01-09T01:50:39.166Z,7.15
2023-01-09T01:54:43.287Z,7.09
2023-01-09T01:58:51.613Z,7.07
2023-01-09T02:02:54.871Z,7.04
2023-01-09T02:07:02.005Z,7.04
2023-01-09T02:11:06.819Z,7.03
2023-01-09T02:15:13.301Z,7.02
2023-01-09T02:19:37.921Z,6.99
2023-01-09T02:24:26.148Z,6.97
2023-01-09T02:28:55.429Z,6.96
2023-01-09T02:33:10.351Z,6.94
2023-01-09T02:37:22.989Z,6.93
2023-01-09T02:41:36.867Z,6.95
2023-01-09T02:45:40.323Z,6.95
2023-01-09T02:49:49.200Z,6.97
2023-01-09T02:54:04.503Z,7.00
2023-01-09T02:58:13.164Z,7.03
2023-01-09T03:02:35.636Z,7.06
2023-01-09T03:06:48.537Z,7.09
2023-01-09T03:10:57.294Z,7.09
2023-01-09T03:15:03.296Z,7.09
2023-01-09T03:19:09.667Z,7.10
2023-01-09T03:23:14.127Z,7.06
2023-01-09T03:27:17.376Z,7.05
2023-01-09T03:31:20.325Z,7.04
2023-01-09T03:35:23.758Z,7.04
2023-01-09T03:39:28.253Z,7.04
2023-01-09T03:43:31.892Z,7.03
2023-01-09T03:47:34.791Z,7.05
2023-01-09T03:51:38.056Z,7.05
2023-01-09T03:55:45.350Z,7.06
2023-01-09T03:59:48.410Z,7.05
2023-01-09T04:03:51.365Z,7.07
2023-01-09T04:07:54.540Z,7.09
2023-01-09T04:11:59.285Z,7.11
2023-01-09T04:16:02.611Z,7.12
2023-01-09T04:20:06.678Z,7.13
2023-01-09T04:24:10.062Z,7.13
2023-01-09T04:28:14.592Z,7.15
2023-01-09T04:32:17.888Z,7.16
2023-01-09T04:36:20.885Z,7.17
2023-01-09T04:40:24.087Z,7.19
2023-01-09T04:44:28.721Z,7.20
2023-01-09T04:48:31.955Z,7.20
2023-01-09T04:52:34.901Z,7.19
2023-01-09T04:56:38.116Z,7.18
2023-01-09T05:00:42.663Z,7.18
2023-01-09T05:04:45.814Z,7.15
2023-01-09T05:08:48.909Z,7.15
2023-01-09T05:12:52.839Z,7.12
2023-01-09T05:16:58.274Z,7.12
2023-01-09T05:21:01.516Z,7.09
2023-01-09T05:25:04.762Z,7.08
2023-01-09T05:29:07.883Z,7.06
2023-01-09T05:33:12.422Z,7.06
2023-01-09T05:37:15.646Z,7.05
2023-01-09T05:41:18.627Z,7.04
2023-01-09T05:45:22.513Z,7.03
2023-01-09T05:49:27.226Z,7.05
2023-01-09T05:53:30.464Z,7.05
2023-01-09T05:57:33.344Z,7.09
2023-01-09T06:01:36.723Z,7.12
2023-01-09T06:05:41.268Z,7.14
2023-01-09T06:09:45.578Z,7.14
2023-01-09T06:13:48.450Z,7.14
2023-01-09T06:17:51.888Z,7.13
2023-01-09T06:21:56.350Z,7.05
2023-01-09T06:26:00.872Z,7.08
2023-01-09T06:30:04.181Z,7.10
2023-01-09T06:34:07.244Z,7.09
2023-01-09T06:38:12.642Z,7.09
2023-01-09T06:42:15.721Z,7.04
2023-01-09T06:46:19.015Z,7.08
2023-01-09T06:50:22.064Z,7.07
2023-01-09T06:54:28.609Z,7.05
2023-01-09T06:58:31.915Z,7.01
2023-01-09T07:02:34.773Z,6.98
2023-01-09T07:06:38.355Z,6.95
2023-01-09T07:10:42.967Z,6.96
2023-01-09T07:14:46.092Z,6.98
2023-01-09T07:18:49.221Z,7.00
2023-01-09T07:22:52.268Z,7.04
2023-01-09T07:26:56.819Z,7.08
2023-01-09T07:31:02.904Z,7.12
2023-01-09T07:35:06.644Z,7.13
2023-01-09T07:39:09.678Z,7.14
2023-01-09T07:43:14.213Z,7.14
2023-01-09T07:47:17.165Z,7.13
2023-01-09T07:51:20.278Z,7.13
2023-01-09T07:55:23.330Z,7.15
2023-01-09T07:59:29.128Z,7.17
2023-01-09T08:03:33.753Z,7.18
2023-01-09T08:07:37.060Z,7.21
2023-01-09T08:11:39.996Z,7.25
2023-01-09T08:15:45.851Z,7.29
2023-01-09T08:19:48.917Z,7.39
2023-01-09T08:23:52.064Z,7.54
2023-01-09T08:27:55.011Z,7.74
2023-01-09T08:31:59.813Z,7.98
2023-01-09T08:36:03.072Z,8.15
2023-01-09T08:40:07.893Z,8.35
2023-01-09T08:44:28.455Z,8.42
2023-01-09T08:48:32.917Z,8.72
2023-01-09T08:52:36.048Z,8.81
2023-01-09T08:56:39.499Z,8.88
2023-01-09T09:00:42.813Z,8.98
2023-01-09T09:04:48.127Z,8.99
2023-01-09T09:08:51.231Z,9.02
2023-01-09T09:12:56.220Z,9.05
2023-01-09T09:16:59.721Z,9.02
2023-01-09T09:21:04.128Z,9.08
2023-01-09T09:25:08.689Z,9.15
2023-01-09T09:29:11.889Z,9.21
2023-01-09T09:33:15.023Z,9.23
2023-01-09T09:37:23.614Z,9.17
2023-01-09T09:42:03.317Z,9.32
2023-01-09T09:46:16.537Z,9.41
2023-01-09T09:50:43.348Z,9.42
2023-01-09T10:01:02.608Z,9.57
2023-01-09T10:06:12.488Z,9.58
2023-01-09T10:10:47.760Z,9.65
2023-01-09T10:14:52.054Z,9.69
2023-01-09T10:19:18.932Z,9.77
2023-01-09T10:23:54.568Z,9.85
2023-01-09T10:28:28.291Z,9.89
2023-01-09T10:32:53.048Z,9.98
2023-01-09T10:37:03.132Z,10.00
2023-01-09T10:41:11.974Z,9.99
2023-01-09T10:45:22.515Z,10.02
2023-01-09T10:49:26.172Z,10.05
2023-01-09T10:53:34.460Z,10.05
2023-01-09T10:57:43.461Z,10.03
2023-01-09T11:01:48.284Z,10.10
2023-01-09T11:05:53.995Z,10.03
2023-01-09T11:09:59.274Z,10.18
2023-01-09T11:14:08.646Z,10.23
2023-01-09T11:18:26.061Z,10.32
2023-01-09T11:22:29.792Z,10.39
2023-01-09T11:26:35.154Z,10.45
2023-01-09T11:30:39.211Z,10.48
2023-01-09T11:34:47.557Z,10.53
2023-01-09T11:38:54.037Z,10.48
2023-01-09T11:43:07.677Z,10.58
2023-01-09T11:47:28.019Z,10.62
2023-01-09T11:51:35.259Z,10.60
2023-01-09T11:55:42.868Z,10.67
2023-01-09T11:59:46.279Z,10.68
2023-01-09T12:04:08.703Z,10.77
2023-01-09T12:12:52.996Z,10.88
2023-01-09T12:17:20.120Z,10.91
2023-01-09T12:21:37.544Z,10.94
2023-01-09T12:25:51.811Z,10.95
2023-01-09T12:30:12.281Z,10.95
2023-01-09T12:34:32.863Z,10.99
2023-01-09T12:38:48.072Z,11.00
2023-01-09T12:42:59.830Z,11.05
2023-01-09T12:47:20.665Z,11.08
2023-01-09T12:51:29.525Z,11.13
2023-01-09T12:55:40.092Z,11.16
2023-01-09T12:59:48.806Z,11.17
2023-01-09T13:04:03.260Z,11.15
2023-01-09T13:08:11.597Z,11.19
2023-01-09T13:12:18.635Z,11.16
2023-01-09T13:16:24.893Z,11.11
2023-01-09T13:20:37.800Z,11.06
2023-01-09T13:24:54.821Z,10.99
2023-01-09T13:29:03.445Z,10.94
2023-01-09T13:33:18.389Z,10.89
2023-01-09T13:37:26.156Z,10.83
2023-01-09T13:41:48.965Z,10.75
2023-01-09T13:45:53.050Z,10.70
2023-01-09T13:50:22.969Z,10.64
2023-01-09T13:54:59.293Z,10.60
2023-01-09T13:59:04.441Z,10.52
2023-01-09T14:03:23.790Z,10.44
2023-01-09T14:07:28.547Z,10.40
2023-01-09T14:11:32.224Z,10.35
2023-01-09T14:15:40.072Z,10.33
2023-01-09T14:19:46.989Z,10.31
2023-01-09T14:24:02.169Z,10.28
2023-01-09T14:28:21.967Z,10.25
2023-01-09T14:32:47.365Z,10.19
2023-01-09T14:36:50.784Z,10.14
2023-01-09T14:40:58.711Z,10.08
2023-01-09T14:45:08.369Z,10.03
2023-01-09T14:49:25.566Z,9.96
2023-01-09T14:53:32.041Z,9.93
2023-01-09T14:57:36.414Z,9.89
2023-01-09T15:01:43.113Z,9.86
2023-01-09T15:05:49.924Z,9.84
2023-01-09T15:09:53.106Z,9.80
2023-01-09T15:14:00.633Z,9.78
2023-01-09T15:18:07.136Z,9.76
2023-01-09T15:22:24.973Z,9.75
2023-01-09T15:26:30.591Z,9.71
2023-01-09T15:30:36.287Z,9.68
2023-01-09T15:34:39.564Z,9.65
2023-01-09T15:38:44.998Z,9.60
2023-01-09T15:42:58.442Z,9.55
2023-01-09T15:47:02.897Z,9.57
2023-01-09T15:51:10.603Z,9.55
2023-01-09T15:55:35.258Z,9.54
2023-01-09T15:59:39.046Z,9.49
2023-01-09T16:03:42.127Z,9.46
2023-01-09T16:07:47.369Z,9.45
2023-01-09T16:11:54.473Z,9.43
2023-01-09T16:15:59.004Z,9.41
2023-01-09T16:20:16.056Z,9.37
2023-01-09T16:24:27.984Z,9.36
2023-01-09T16:28:33.032Z,9.35
2023-01-09T16:32:46.789Z,9.32
2023-01-09T16:36:49.984Z,9.33
2023-01-09T16:41:18.371Z,9.35
2023-01-09T16:45:23.251Z,9.34
2023-01-09T16:49:29.325Z,9.34
2023-01-09T16:53:32.460Z,9.36
2023-01-09T16:57:36.862Z,9.39
2023-01-09T17:01:41.919Z,9.43
2023-01-09T17:05:45.679Z,9.44
2023-01-09T17:09:49.225Z,9.47
2023-01-09T17:13:52.702Z,9.51
2023-01-09T17:18:01.307Z,9.52
2023-01-09T17:22:04.352Z,9.55
2023-01-09T17:26:25.120Z,9.56
2023-01-09T17:30:28.721Z,9.56
2023-01-09T17:34:34.455Z,9.57
2023-01-09T17:38:39.858Z,9.58
2023-01-09T17:42:42.787Z,9.58
2023-01-09T17:46:46.323Z,9.62
2023-01-09T17:50:51.480Z,9.62
2023-01-09T17:54:57.871Z,9.61
2023-01-09T17:59:13.781Z,9.58
2023-01-09T18:03:21.187Z,9.55
2023-01-09T18:07:29.157Z,9.53
2023-01-09T18:11:32.854Z,9.49
2023-01-09T18:15:36.979Z,9.45
2023-01-09T18:19:40.656Z,9.47
2023-01-09T18:23:50.612Z,9.47
2023-01-09T18:27:57.025Z,9.45
2023-01-09T18:32:03.812Z,9.42
2023-01-09T18:36:08.521Z,9.43
2023-01-09T18:40:19.761Z,9.42
2023-01-09T18:44:25.019Z,9.41
2023-01-09T18:48:33.926Z,9.40
2023-01-09T18:52:37.131Z,9.41
2023-01-09T18:56:42.381Z,9.43
2023-01-09T19:00:46.246Z,9.43
2023-01-09T19:04:49.591Z,9.46
2023-01-09T19:08:53.330Z,9.46
2023-01-09T19:12:58.962Z,9.49
2023-01-09T19:17:02.100Z,9.46
2023-01-09T19:21:13.306Z,9.50
2023-01-09T19:25:17.579Z,9.50
2023-01-09T19:29:22.434Z,9.52
2023-01-09T19:33:28.666Z,9.51
2023-01-09T19:37:32.031Z,9.51
2023-01-09T19:41:35.180Z,9.48
2023-01-09T19:45:41.590Z,9.47
2023-01-09T19:49:44.865Z,9.43
2023-01-09T19:53:53.763Z,9.40
2023-01-09T19:57:57.111Z,9.34
2023-01-09T20:02:03.347Z,9.29
2023-01-09T20:06:08.005Z,9.22
2023-01-09T20:10:14.967Z,9.19
2023-01-09T20:14:20.160Z,9.14
2023-01-09T20:18:24.814Z,9.10
2023-01-09T20:22:27.901Z,9.09
2023-01-09T20:26:31.455Z,9.07
2023-01-09T20:30:36.611Z,9.06
2023-01-09T20:34:42.918Z,9.08
2023-01-09T20:38:48.314Z,9.13
2023-01-09T20:42:51.218Z,9.17
2023-01-09T20:46:55.861Z,9.21
2023-01-09T20:51:05.950Z,9.24
2023-01-09T20:55:10.879Z,9.21
2023-01-09T20:59:17.249Z,9.21
2023-01-09T21:03:20.314Z,9.18
2023-01-09T21:07:26.415Z,9.18
2023-01-09T21:11:29.735Z,9.15
2023-01-09T21:15:33.388Z,9.13
2023-01-09T21:19:36.315Z,9.07
2023-01-09T21:23:42.059Z,9.02
2023-01-09T21:27:46.215Z,9.03
2023-01-09T21:31:49.614Z,9.01
2023-01-09T21:35:56.276Z,8.98
2023-01-09T21:40:00.872Z,8.96
2023-01-09T21:44:21.890Z,8.91
2023-01-09T21:48:25.804Z,8.89
2023-01-09T21:52:29.318Z,8.90
2023-01-09T21:56:33.813Z,8.89
2023-01-09T22:00:37.253Z,8.84
2023-01-09T22:04:43.223Z,8.83
2023-01-09T22:08:46.586Z,8.79
2023-01-09T22:13:10.365Z,8.77
2023-01-09T22:17:15.634Z,8.73
2023-01-09T22:21:19.172Z,8.70
2023-01-09T22:25:22.886Z,8.66
2023-01-09T22:29:27.340Z,8.61
2023-01-09T22:33:30.420Z,8.60
2023-01-09T22:37:33.661Z,8.56
2023-01-09T22:41:36.978Z,8.58
2023-01-09T22:45:41.348Z,8.55
2023-01-09T22:49:52.868Z,8.52
2023-01-09T22:53:56.525Z,8.50
2023-01-09T22:57:59.913Z,8.48
2023-01-09T23:02:04.436Z,8.46
2023-01-09T23:06:09.966Z,8.42
2023-01-09T23:10:13.243Z,8.40
2023-01-09T23:14:16.413Z,8.36
2023-01-09T23:18:20.990Z,8.36
2023-01-09T23:22:26.189Z,8.32
2023-01-09T23:26:29.258Z,8.29
2023-01-09T23:30:32.468Z,8.24
2023-01-09T23:34:37.026Z,8.19
2023-01-09T23:38:41.200Z,8.15
2023-01-09T23:43:01.670Z,8.12
2023-01-09T23:47:04.960Z,8.09
2023-01-09T23:51:09.373Z,8.08
2023-01-09T23:55:12.367Z,8.07
2023-01-09T23:59:17.998Z,8.07
